Time;durP1;ratioP1;P1;durP2;ratioP2;P2;SDS_P1;SDS_P2;PMS_P1;PMS_P2;Temp;Humidity;BMP_temperature;BMP_pressure;BME280_temperature;BME280_humidity;BME280_pressure;Samples;Min_cycle;Max_cycle;Signal;HPM_P1;HPM_P2
2022/08/26 00:01:41;;;;;;;16.70;10.50;;;;;;;20.12;79.26;101367.75;5054698;28;20025;-76
2022/08/26 00:04:07;;;;;;;13.52;10.10;;;;;;;20.13;79.20;101361.53;5049533;28;20037;-77
2022/08/26 00:06:33;;;;;;;12.10;8.93;;;;;;;20.11;79.47;101358.13;5049845;28;20041;-76
2022/08/26 00:08:59;;;;;;;14.15;9.85;;;;;;;20.09;79.40;101365.28;5044688;28;20143;-77
2022/08/26 00:11:24;;;;;;;13.38;9.57;;;;;;;20.07;79.22;101366.31;5044911;28;20040;-76
2022/08/26 00:13:50;;;;;;;16.52;8.68;;;;;;;20.05;79.32;101361.09;5048628;28;20056;-77
2022/08/26 00:16:15;;;;;;;13.30;8.38;;;;;;;20.04;79.44;101369.97;5045270;28;20029;-77
2022/08/26 00:18:41;;;;;;;12.00;7.82;;;;;;;20.05;79.03;101374.31;5051303;28;20021;-77
2022/08/26 00:21:07;;;;;;;12.30;7.75;;;;;;;20.04;79.34;101364.69;5048574;28;20036;-77
2022/08/26 00:23:33;;;;;;;10.02;7.78;;;;;;;20.03;79.14;101370.91;5046454;28;20024;-77
2022/08/26 00:25:59;;;;;;;12.25;7.35;;;;;;;20.04;79.22;101383.16;5045982;28;20044;-77
2022/08/26 00:28:25;;;;;;;11.18;6.78;;;;;;;20.06;79.27;101385.75;5049179;28;20326;-77
2022/08/26 00:30:50;;;;;;;13.05;7.25;;;;;;;20.05;79.11;101379.59;5052810;28;20040;-77
2022/08/26 00:33:16;;;;;;;9.73;6.10;;;;;;;20.07;79.41;101390.94;5050219;28;20115;-77
2022/08/26 00:35:43;;;;;;;12.85;6.32;;;;;;;20.07;79.61;101382.16;5052427;28;20285;-77
2022/08/26 00:38:08;;;;;;;12.25;6.40;;;;;;;20.06;79.55;101383.09;5053570;28;20032;-77
2022/08/26 00:40:39;;;;;;;9.43;5.65;;;;;;;20.06;79.30;101389.22;5053117;28;20029;-76
2022/08/26 00:43:05;;;;;;;7.80;5.00;;;;;;;20.06;79.21;101389.22;5067692;28;20017;-76
2022/08/26 00:45:42;;;;;;;8.85;5.10;;;;;;;20.04;79.47;101387.63;5051700;28;20037;-76
2022/08/26 00:48:08;;;;;;;10.10;4.65;;;;;;;20.03;79.38;101381.47;5051344;28;20017;-76
2022/08/26 00:50:38;;;;;;;7.80;4.35;;;;;;;20.02;79.41;101382.41;5057125;28;20078;-74
2022/08/26 00:53:20;;;;;;;8.02;4.10;;;;;;;20.02;79.44;101379.75;5051018;28;20111;-74
2022/08/26 00:55:50;;;;;;;8.98;4.25;;;;;;;20.02;79.08;101374.47;5050172;28;20021;-74
2022/08/26 00:58:16;;;;;;;10.45;4.80;;;;;;;19.96;79.18;101377.50;5051615;28;20025;-74
2022/08/26 01:00:42;;;;;;;9.52;4.40;;;;;;;19.95;79.26;101379.25;5048623;28;20025;-75
2022/08/26 01:03:08;;;;;;;6.78;3.47;;;;;;;19.98;78.34;101378.25;5050317;28;20029;-74
2022/08/26 01:05:33;;;;;;;9.88;4.03;;;;;;;19.95;78.80;101386.34;5048990;28;20037;-74
2022/08/26 01:07:59;;;;;;;8.98;3.72;;;;;;;19.97;78.42;101382.66;5050638;28;20090;-74
2022/08/26 01:10:28;;;;;;;8.93;3.70;;;;;;;19.94;78.43;101397.84;5052161;28;20135;-74
2022/08/26 01:13:03;;;;;;;6.85;3.50;;;;;;;19.92;78.16;101394.44;5064239;28;20112;-74
2022/08/26 01:15:34;;;;;;;8.07;3.25;;;;;;;19.91;78.36;101392.72;5047840;28;20395;-74
2022/08/26 01:18:02;;;;;;;5.47;3.28;;;;;;;19.91;78.47;101387.44;5050427;28;20475;-74
2022/08/26 01:20:40;;;;;;;5.40;3.30;;;;;;;19.88;78.88;101388.50;5046044;28;20661;-74
2022/08/26 01:23:08;;;;;;;6.97;3.40;;;;;;;19.88;78.80;101382.34;5052136;28;20108;-74
2022/08/26 01:25:38;;;;;;;6.63;3.17;;;;;;;19.88;78.58;101379.69;5048379;28;20032;-74
2022/08/26 01:28:07;;;;;;;6.55;3.15;;;;;;;19.90;78.79;101383.09;5050197;28;20025;-74
2022/08/26 01:30:34;;;;;;;9.40;2.80;;;;;;;19.88;78.50;101379.69;5049399;28;20029;-74
2022/08/26 01:33:02;;;;;;;6.07;2.83;;;;;;;19.84;78.95;101385.13;5051006;28;20491;-74
2022/08/26 01:35:29;;;;;;;8.32;3.38;;;;;;;19.83;78.94;101387.84;5052607;28;20029;-74
2022/08/26 01:37:55;;;;;;;5.63;2.80;;;;;;;19.82;78.82;101381.72;5050903;28;20020;-74
2022/08/26 01:40:25;;;;;;;7.68;2.90;;;;;;;19.80;78.89;101380.97;5049573;28;20036;-74
2022/08/26 01:42:52;;;;;;;5.65;2.63;;;;;;;19.79;78.94;101381.91;5049681;28;20025;-74
2022/08/26 01:45:24;;;;;;;5.45;2.90;;;;;;;19.79;78.77;101392.47;5048422;28;20108;-74
2022/08/26 01:47:52;;;;;;;5.50;2.42;;;;;;;19.78;79.11;101382.84;5049491;28;20035;-74
2022/08/26 01:50:23;;;;;;;5.13;2.70;;;;;;;19.77;78.86;101381.13;5048317;28;20663;-74
2022/08/26 01:52:49;;;;;;;6.55;2.72;;;;;;;19.76;79.21;101379.44;5051199;28;20385;-74
2022/08/26 01:55:16;;;;;;;6.95;2.78;;;;;;;19.75;79.29;101372.44;5048074;28;20029;-74
2022/08/26 01:57:44;;;;;;;8.88;3.00;;;;;;;19.75;79.35;101377.72;5047899;28;20025;-74
2022/08/26 02:00:14;;;;;;;6.63;3.22;;;;;;;19.78;79.40;101377.56;5048095;28;20452;-74
2022/08/26 02:02:45;;;;;;;5.38;2.72;;;;;;;19.76;79.64;101379.44;5050672;28;20365;-74
2022/08/26 02:05:15;;;;;;;7.35;3.10;;;;;;;19.78;79.32;101385.47;5049198;28;20197;-74
2022/08/26 02:07:42;;;;;;;4.82;2.70;;;;;;;19.79;79.40;101391.59;5048908;28;20045;-74
2022/08/26 02:10:09;;;;;;;5.65;2.88;;;;;;;19.80;79.64;101385.38;5048961;28;20040;-74
2022/08/26 02:12:35;;;;;;;7.82;3.00;;;;;;;19.77;79.52;101380.28;5049989;28;20036;-74
2022/08/26 02:15:04;;;;;;;5.00;2.70;;;;;;;19.75;79.55;101388.28;5049867;28;20108;-74
2022/08/26 02:17:38;;;;;;;6.55;2.67;;;;;;;19.77;79.56;101389.06;5049791;28;20028;-74
2022/08/26 02:20:05;;;;;;;5.07;2.78;;;;;;;19.76;79.47;101384.72;5047099;28;21448;-74
2022/08/26 02:22:30;;;;;;;5.60;2.90;;;;;;;19.76;79.65;101378.56;5046732;28;20172;-74
2022/08/26 02:25:09;;;;;;;4.22;2.70;;;;;;;19.75;79.51;101382.13;5048551;28;20111;-74
2022/08/26 02:27:36;;;;;;;5.50;2.53;;;;;;;19.74;79.62;101383.94;5046976;28;20024;-74
2022/08/26 02:30:16;;;;;;;6.35;2.40;;;;;;;19.74;78.70;101391.88;5045862;28;20021;-74
2022/08/26 02:32:42;;;;;;;6.13;2.38;;;;;;;19.72;79.57;101391.09;5052134;28;21553;-74
2022/08/26 02:35:10;;;;;;;4.55;2.58;;;;;;;19.70;79.23;101390.31;5048013;28;20112;-74
2022/08/26 02:37:35;;;;;;;5.35;2.55;;;;;;;19.70;79.27;101392.97;5047554;28;20075;-74
2022/08/26 02:40:01;;;;;;;5.50;2.47;;;;;;;19.68;79.42;101394.84;5048112;28;20025;-74
2022/08/26 02:42:27;;;;;;;6.45;2.55;;;;;;;19.66;79.62;101400.22;5050107;28;20476;-74
2022/08/26 02:44:52;;;;;;;5.57;2.40;;;;;;;19.66;79.63;101396.69;5047572;28;20029;-74
2022/08/26 02:47:18;;;;;;;4.93;2.40;;;;;;;19.64;79.32;101401.25;5046912;28;20029;-74
2022/08/26 02:49:44;;;;;;;5.88;2.15;;;;;;;19.63;79.49;101410.09;5046607;28;20024;-74
2022/08/26 02:52:10;;;;;;;5.90;2.40;;;;;;;19.59;79.45;101401.47;5047617;28;20029;-74
2022/08/26 02:54:35;;;;;;;4.75;2.40;;;;;;;19.58;79.48;101401.56;5049218;28;20040;-74
2022/08/26 02:57:01;;;;;;;5.80;2.60;;;;;;;19.57;79.43;101400.69;5050807;28;20025;-74
2022/08/26 02:59:28;;;;;;;6.65;2.30;;;;;;;19.56;79.65;101405.13;5047856;28;20028;-74
2022/08/26 03:01:53;;;;;;;5.70;2.63;;;;;;;19.55;79.56;101398.16;5044653;28;20047;-74
2022/08/26 03:04:20;;;;;;;6.50;2.50;;;;;;;19.54;79.52;101407.00;5049634;28;20032;-74
2022/08/26 03:06:45;;;;;;;4.75;2.42;;;;;;;19.53;80.07;101393.91;5046236;28;20053;-74
2022/08/26 03:09:11;;;;;;;7.40;2.67;;;;;;;19.52;80.04;101387.75;5055517;28;20021;-74
2022/08/26 03:11:36;;;;;;;4.45;2.20;;;;;;;19.54;80.00;101401.72;5049393;28;20025;-74
2022/08/26 03:14:02;;;;;;;6.10;2.10;;;;;;;19.55;79.79;101399.97;5048222;28;20167;-74
2022/08/26 03:16:31;;;;;;;7.40;2.40;;;;;;;19.54;79.64;101406.16;5046309;28;20027;-74
2022/08/26 03:18:56;;;;;;;5.35;2.10;;;;;;;19.52;80.04;101403.59;5045240;28;20102;-74
2022/08/26 03:21:22;;;;;;;5.88;1.92;;;;;;;19.54;79.98;101399.09;5044513;28;20060;-74
2022/08/26 03:23:47;;;;;;;5.35;2.00;;;;;;;19.52;79.59;101393.03;5048083;28;20760;-74
2022/08/26 03:26:14;;;;;;;5.47;2.08;;;;;;;19.50;79.94;101402.81;5047388;28;20100;-74
2022/08/26 03:31:23;;;;;;;5.75;1.90;;;;;;;19.47;79.58;101402.16;5050660;28;20055;-75
2022/08/26 03:33:49;;;;;;;4.15;1.42;;;;;;;19.48;80.00;101406.50;5050085;28;20475;-73
2022/08/26 03:36:14;;;;;;;5.10;1.80;;;;;;;19.46;79.75;101400.44;5047647;28;20052;-74
2022/08/26 03:38:40;;;;;;;4.28;1.58;;;;;;;19.45;79.82;101410.16;5049712;28;20028;-74
2022/08/26 03:41:07;;;;;;;4.28;1.70;;;;;;;19.42;79.54;101412.97;5048254;28;20433;-74
2022/08/26 03:43:32;;;;;;;4.00;1.60;;;;;;;19.40;79.76;101412.19;5046569;28;20021;-74
2022/08/26 03:45:57;;;;;;;4.90;1.55;;;;;;;19.40;79.67;101410.38;5050702;28;20025;-73
2022/08/26 03:48:23;;;;;;;6.78;1.60;;;;;;;19.42;79.86;101407.69;5050763;28;20028;-74
2022/08/26 03:50:48;;;;;;;4.82;1.88;;;;;;;19.43;79.50;101409.38;5050131;28;20025;-74
2022/08/26 03:53:13;;;;;;;4.28;1.80;;;;;;;19.42;80.12;101415.59;5047517;28;20492;-74
2022/08/26 03:55:39;;;;;;;5.93;1.70;;;;;;;19.44;80.03;101410.22;5049030;28;20067;-74
2022/08/26 03:58:05;;;;;;;5.60;1.67;;;;;;;19.45;79.73;101412.81;5048032;28;20025;-74
2022/08/26 04:00:30;;;;;;;4.10;1.60;;;;;;;19.45;79.77;101418.06;5048305;28;20037;-74
2022/08/26 04:02:56;;;;;;;4.75;1.48;;;;;;;19.46;79.73;101417.16;5048416;28;20028;-74
2022/08/26 04:05:22;;;;;;;4.45;1.40;;;;;;;19.47;79.61;101410.06;5048415;28;20033;-74
2022/08/26 04:07:47;;;;;;;4.93;1.73;;;;;;;19.46;79.92;101408.38;5045962;28;20056;-74
2022/08/26 04:10:15;;;;;;;6.63;1.98;;;;;;;19.45;79.68;101418.06;5048206;28;20036;-74
2022/08/26 04:12:40;;;;;;;5.00;1.70;;;;;;;19.46;79.96;101411.88;5049806;28;20107;-74
2022/08/26 04:15:09;;;;;;;3.60;1.52;;;;;;;19.44;79.90;101413.72;5047778;28;20142;-76
2022/08/26 04:17:34;;;;;;;3.85;1.77;;;;;;;19.44;79.79;101416.38;5048469;28;20029;-74
2022/08/26 04:19:59;;;;;;;5.90;2.10;;;;;;;19.42;80.30;101405.88;5048184;28;20029;-73
2022/08/26 04:22:25;;;;;;;4.55;1.73;;;;;;;19.43;79.64;101406.75;5046855;28;20484;-74
2022/08/26 04:24:50;;;;;;;4.75;1.60;;;;;;;19.42;79.72;101403.25;5046557;28;20064;-73
2022/08/26 04:27:15;;;;;;;6.20;1.70;;;;;;;19.42;80.05;101403.25;5047242;28;20473;-76
2022/08/26 04:29:42;;;;;;;5.68;2.03;;;;;;;19.40;79.80;101409.56;5059173;28;20460;-74
2022/08/26 04:32:07;;;;;;;6.47;1.80;;;;;;;19.37;79.75;101407.06;5047013;28;20139;-74
2022/08/26 04:34:34;;;;;;;2.80;1.50;;;;;;;19.36;80.29;101414.16;5048039;28;20112;-74
2022/08/26 04:36:59;;;;;;;4.72;1.75;;;;;;;19.37;80.28;101404.44;5048579;28;20187;-74
2022/08/26 04:39:26;;;;;;;5.82;1.80;;;;;;;19.35;80.05;101403.66;5046543;28;21538;-74
2022/08/26 04:41:53;;;;;;;8.65;1.80;;;;;;;19.36;80.12;101405.38;5045836;28;20476;-76
2022/08/26 04:44:20;;;;;;;9.00;1.88;;;;;;;19.36;80.22;101415.91;5045650;28;20033;-77
2022/08/26 04:46:45;;;;;;;4.00;1.60;;;;;;;19.35;79.97;101411.56;5045900;28;20037;-76
2022/08/26 04:49:11;;;;;;;12.80;2.22;;;;;;;19.36;80.22;101419.44;5046300;28;20100;-75
2022/08/26 04:51:38;;;;;;;4.38;1.73;;;;;;;19.37;80.08;101415.00;5049006;28;20475;-75
2022/08/26 04:54:05;;;;;;;4.32;1.65;;;;;;;19.37;80.10;101415.84;5049704;28;20068;-74
2022/08/26 04:56:34;;;;;;;4.72;1.40;;;;;;;19.38;80.46;101414.06;5048818;28;20032;-74
2022/08/26 04:59:01;;;;;;;7.50;1.45;;;;;;;19.42;79.88;101420.88;5044845;28;20029;-74
2022/08/26 05:01:27;;;;;;;3.10;1.20;;;;;;;19.44;79.93;101426.94;5043087;28;20155;-74
2022/08/26 05:03:53;;;;;;;3.70;1.42;;;;;;;19.44;79.94;101416.38;5045507;28;20112;-74
2022/08/26 05:06:19;;;;;;;4.35;1.50;;;;;;;19.45;79.92;101431.28;5045553;28;20040;-74
2022/08/26 05:08:44;;;;;;;3.10;1.40;;;;;;;19.46;79.80;101418.91;5048089;28;20045;-75
2022/08/26 05:11:10;;;;;;;5.55;1.60;;;;;;;19.47;79.59;101424.09;5047264;28;20115;-74
2022/08/26 05:13:37;;;;;;;4.65;1.40;;;;;;;19.49;79.22;101424.88;5046389;28;20028;-74
2022/08/26 05:16:05;;;;;;;3.97;1.48;;;;;;;19.49;79.61;101429.31;5051175;28;20029;-74
2022/08/26 05:18:32;;;;;;;3.70;1.30;;;;;;;19.49;79.81;101427.50;5050086;28;20051;-74
2022/08/26 05:20:59;;;;;;;3.60;1.20;;;;;;;19.51;79.44;101425.66;5049000;28;20368;-75
2022/08/26 05:23:24;;;;;;;3.53;1.38;;;;;;;19.49;79.46;101426.66;5052265;28;20036;-74
2022/08/26 05:25:52;;;;;;;5.85;1.58;;;;;;;19.48;79.38;101425.81;5048742;28;20032;-74
2022/08/26 05:28:18;;;;;;;7.50;1.65;;;;;;;19.51;79.86;101432.72;5050905;28;20037;-74
2022/08/26 05:30:44;;;;;;;5.28;1.60;;;;;;;19.51;79.00;101430.09;5050065;28;20021;-74
2022/08/26 05:33:10;;;;;;;3.13;1.30;;;;;;;19.50;79.16;101434.50;5050205;28;20040;-74
2022/08/26 05:35:37;;;;;;;3.75;1.38;;;;;;;19.50;79.38;101431.84;5050623;28;20032;-74
2022/08/26 05:38:06;;;;;;;4.13;1.20;;;;;;;19.51;79.41;101440.63;5049921;28;20108;-74
2022/08/26 05:40:43;;;;;;;5.40;1.48;;;;;;;19.50;78.92;101441.56;5051297;28;20020;-74
2022/08/26 05:43:09;;;;;;;5.88;1.40;;;;;;;19.49;78.80;101439.88;5047252;28;20024;-74
2022/08/26 05:45:37;;;;;;;2.85;1.23;;;;;;;19.45;79.15;101433.91;5046760;28;20119;-74
2022/08/26 05:48:04;;;;;;;3.22;1.17;;;;;;;19.47;79.39;101441.72;5047664;28;20079;-74
2022/08/26 05:50:29;;;;;;;3.55;1.30;;;;;;;19.48;79.55;101435.53;5049023;28;20017;-75
2022/08/26 05:52:55;;;;;;;4.13;1.17;;;;;;;19.50;79.46;101441.56;5051152;28;20032;-74
2022/08/26 05:55:20;;;;;;;4.25;1.40;;;;;;;19.54;78.90;101440.47;5048372;28;20383;-74
2022/08/26 05:57:45;;;;;;;3.95;1.20;;;;;;;19.52;79.15;101445.81;5050363;28;20550;-75
2022/08/26 06:00:14;;;;;;;3.38;1.20;;;;;;;19.55;79.55;101452.75;5049288;28;20033;-74
2022/08/26 06:02:40;;;;;;;3.85;1.30;;;;;;;19.55;79.27;101452.75;5047894;28;20093;-75
2022/08/26 06:05:06;;;;;;;6.15;1.45;;;;;;;19.59;79.21;101456.06;5046904;28;20430;-74
2022/08/26 06:10:15;;;;;;;5.20;1.23;;;;;;;19.59;78.79;101461.34;5046914;28;20047;-74
2022/08/26 06:12:40;;;;;;;4.72;1.40;;;;;;;19.59;78.88;101467.47;5048319;28;20025;-75
2022/08/26 06:15:06;;;;;;;3.35;1.25;;;;;;;19.59;78.73;101462.19;5048672;28;20033;-74
2022/08/26 06:17:31;;;;;;;4.57;1.10;;;;;;;19.59;79.30;101469.25;5050653;28;20104;-74
2022/08/26 06:19:57;;;;;;;4.45;1.60;;;;;;;19.59;78.73;101466.63;5047863;28;20025;-74
2022/08/26 06:27:50;;;;;;;3.97;1.27;;;;;;;19.59;79.06;101478.00;5052314;28;20043;-75
2022/08/26 06:30:16;;;;;;;4.20;1.30;;;;;;;19.62;78.99;101472.56;5047053;28;20033;-74
2022/08/26 06:32:41;;;;;;;2.85;1.10;;;;;;;19.65;78.92;101482.09;5050418;28;20468;-74
2022/08/26 06:35:07;;;;;;;1.88;1.00;;;;;;;19.64;78.75;101480.44;5047237;28;20032;-74
2022/08/26 06:37:32;;;;;;;3.78;1.25;;;;;;;19.65;78.47;101479.47;5048578;28;20369;-74
2022/08/26 06:39:57;;;;;;;3.58;1.20;;;;;;;19.65;78.59;101484.75;5048960;28;20087;-74
2022/08/26 06:42:23;;;;;;;3.97;1.30;;;;;;;19.64;79.18;101483.06;5047011;28;20028;-74
2022/08/26 06:44:48;;;;;;;4.25;1.08;;;;;;;19.67;78.99;101498.72;5047505;28;20020;-74
2022/08/26 06:47:13;;;;;;;4.68;1.30;;;;;;;19.70;78.16;101495.91;5047341;28;20036;-75
2022/08/26 06:49:39;;;;;;;3.67;1.20;;;;;;;19.71;78.29;101492.34;5047561;28;20028;-74
2022/08/26 06:52:04;;;;;;;4.30;1.27;;;;;;;19.71;78.23;101497.63;5050089;28;20100;-75
2022/08/26 06:54:30;;;;;;;7.40;1.30;;;;;;;19.72;78.56;101499.31;5049589;28;20037;-74
2022/08/26 06:56:56;;;;;;;2.90;1.00;;;;;;;19.74;78.19;101489.53;5047736;28;20021;-75
2022/08/26 06:59:21;;;;;;;4.63;1.20;;;;;;;19.77;78.28;101492.03;5048873;28;20148;-75
2022/08/26 07:01:46;;;;;;;2.30;1.10;;;;;;;19.82;78.11;101497.88;5047500;28;20112;-74
2022/08/26 07:04:15;;;;;;;4.13;1.38;;;;;;;19.86;77.78;101494.16;5047576;28;20045;-75
2022/08/26 07:06:45;;;;;;;3.40;1.20;;;;;;;19.90;77.50;101501.94;5048998;28;20132;-75
2022/08/26 07:09:11;;;;;;;3.17;1.08;;;;;;;19.94;77.75;101487.63;5049270;28;20032;-74
2022/08/26 07:11:37;;;;;;;3.83;1.20;;;;;;;19.97;76.85;101495.41;5046620;28;20502;-75
2022/08/26 07:14:03;;;;;;;4.25;1.10;;;;;;;19.96;76.19;101489.25;5047935;28;20024;-74
2022/08/26 07:16:29;;;;;;;3.83;1.20;;;;;;;19.96;76.66;101491.88;5049373;28;20028;-74
2022/08/26 07:18:56;;;;;;;3.42;1.00;;;;;;;20.00;76.28;101497.84;5048114;28;20052;-74
2022/08/26 07:21:23;;;;;;;3.85;1.23;;;;;;;20.00;76.42;101493.44;5049576;28;20078;-74
2022/08/26 07:23:48;;;;;;;4.15;1.10;;;;;;;20.02;76.17;101498.63;5053028;28;20029;-74
2022/08/26 07:26:18;;;;;;;2.78;1.05;;;;;;;20.05;75.94;101509.00;5049474;28;20029;-74
2022/08/26 07:28:46;;;;;;;9.82;1.92;;;;;;;20.06;76.80;101502.78;5048668;28;20032;-74
2022/08/26 07:31:13;;;;;;;8.90;1.60;;;;;;;20.06;75.82;101507.25;5045833;28;20036;-75
2022/08/26 07:33:40;;;;;;;3.42;0.90;;;;;;;20.07;76.28;101508.94;5049066;28;20057;-74
2022/08/26 07:36:07;;;;;;;4.53;0.90;;;;;;;20.11;75.89;101513.09;5050496;28;20031;-76
2022/08/26 07:38:34;;;;;;;5.60;1.27;;;;;;;20.15;75.70;101502.28;5051135;28;20032;-74
2022/08/26 07:41:00;;;;;;;5.95;1.30;;;;;;;20.17;75.60;101518.06;5049027;28;20033;-74
2022/08/26 07:43:27;;;;;;;3.40;1.20;;;;;;;20.17;75.41;101518.06;5053519;28;20021;-74
2022/08/26 07:45:52;;;;;;;3.40;0.90;;;;;;;20.17;75.18;101521.53;5048861;28;20031;-74
2022/08/26 07:48:18;;;;;;;3.53;0.95;;;;;;;20.23;74.30;101527.41;5048486;28;20025;-74
2022/08/26 07:50:44;;;;;;;2.80;1.00;;;;;;;20.20;74.03;101524.94;5052472;28;20101;-74
2022/08/26 07:53:11;;;;;;;4.32;0.82;;;;;;;20.22;73.82;101528.34;5047273;28;20651;-75
2022/08/26 07:55:37;;;;;;;2.20;0.70;;;;;;;20.22;73.74;101523.06;5047313;28;20463;-74
2022/08/26 07:58:04;;;;;;;3.80;0.88;;;;;;;20.23;73.55;101516.84;5053377;28;20143;-74
2022/08/26 08:00:31;;;;;;;2.72;0.93;;;;;;;20.26;73.19;101529.91;5045661;28;20053;-75
2022/08/26 08:03:00;;;;;;;2.83;0.80;;;;;;;20.28;73.22;101520.09;5048142;28;20032;-74
2022/08/26 08:05:25;;;;;;;1.75;0.70;;;;;;;20.32;72.94;101524.28;5046312;28;20028;-74
2022/08/26 08:07:51;;;;;;;4.45;1.00;;;;;;;20.37;72.99;101522.22;5049143;28;20378;-74
2022/08/26 08:10:21;;;;;;;3.03;0.80;;;;;;;20.43;72.63;101526.28;5050518;28;20045;-74
2022/08/26 08:12:48;;;;;;;4.07;0.90;;;;;;;20.50;72.81;101518.88;5048856;28;20054;-74
2022/08/26 08:15:15;;;;;;;3.47;1.05;;;;;;;20.57;72.63;101528.16;5043699;28;20033;-74
2022/08/26 08:17:44;;;;;;;3.60;0.80;;;;;;;20.62;72.15;101526.94;5050001;28;20025;-74
2022/08/26 08:20:11;;;;;;;3.42;0.80;;;;;;;20.66;71.88;101532.06;5052984;28;20025;-74
2022/08/26 08:22:36;;;;;;;4.70;0.90;;;;;;;20.69;71.30;101527.44;5048458;28;20087;-75
2022/08/26 08:25:01;;;;;;;2.47;0.70;;;;;;;20.72;71.28;101527.28;5049657;28;20112;-74
2022/08/26 08:27:27;;;;;;;2.22;0.85;;;;;;;20.75;71.64;101532.41;5047587;28;20053;-74
2022/08/26 08:29:53;;;;;;;3.50;1.10;;;;;;;20.76;71.06;101531.47;5048921;28;20030;-74
2022/08/26 08:32:19;;;;;;;5.47;1.00;;;;;;;20.81;70.66;101533.84;5047152;28;20028;-74
2022/08/26 08:34:44;;;;;;;3.42;1.00;;;;;;;20.84;70.94;101535.47;5049294;28;20086;-74
2022/08/26 08:37:09;;;;;;;4.80;0.80;;;;;;;20.84;70.33;101538.09;5050160;28;20465;-74
2022/08/26 08:39:35;;;;;;;4.07;0.80;;;;;;;20.83;70.61;101541.72;5048599;28;20021;-74
2022/08/26 08:42:24;;;;;;;4.80;0.90;;;;;;;20.82;70.80;101546.13;5048490;28;20025;-74
2022/08/26 08:44:54;;;;;;;4.10;0.73;;;;;;;20.79;70.50;101538.38;5047522;28;20490;-75
2022/08/26 08:47:31;;;;;;;2.38;0.82;;;;;;;20.79;70.26;101537.53;5040261;28;20029;-75
2022/08/26 08:50:02;;;;;;;3.75;0.73;;;;;;;20.80;70.33;101539.25;5044726;28;20031;-75
2022/08/26 08:52:34;;;;;;;4.55;0.70;;;;;;;20.84;69.81;101533.69;5046139;28;20111;-75
2022/08/26 08:55:01;;;;;;;3.13;0.70;;;;;;;20.84;69.93;101535.47;5046695;28;20032;-75
2022/08/26 08:57:57;;;;;;;3.65;0.80;;;;;;;20.87;70.16;101535.28;5046534;28;20021;-75
2022/08/26 09:00:23;;;;;;;3.10;0.80;;;;;;;20.84;69.58;101536.31;5039683;28;20040;-75
2022/08/26 09:02:59;;;;;;;4.05;0.90;;;;;;;20.84;69.82;101538.09;5042764;28;20035;-75
2022/08/26 09:05:30;;;;;;;4.03;1.35;;;;;;;20.79;69.75;101532.25;5047867;28;20500;-76
2022/08/26 09:08:02;;;;;;;3.22;0.70;;;;;;;20.75;69.81;101543.00;5047036;28;20208;-76
2022/08/26 09:10:35;;;;;;;4.72;0.85;;;;;;;20.71;69.87;101541.44;5044507;28;20079;-75
2022/08/26 09:13:05;;;;;;;5.10;1.00;;;;;;;20.70;69.87;101529.16;5044121;28;20064;-75
2022/08/26 09:15:49;;;;;;;4.88;0.70;;;;;;;20.76;69.97;101533.25;5045450;28;20026;-77
2022/08/26 09:18:30;;;;;;;3.47;0.80;;;;;;;20.77;69.21;101546.41;5038039;28;20044;-76
2022/08/26 09:21:02;;;;;;;5.05;0.80;;;;;;;20.77;69.38;101543.78;5046615;28;20029;-76
2022/08/26 09:23:27;;;;;;;2.97;0.68;;;;;;;20.73;68.85;101547.50;5046314;28;20031;-75
2022/08/26 09:25:57;;;;;;;2.97;0.88;;;;;;;20.73;69.49;101547.50;5046100;28;20025;-76
2022/08/26 09:28:26;;;;;;;3.95;0.90;;;;;;;20.73;69.35;101550.13;5077633;28;20031;-76
2022/08/26 09:31:12;;;;;;;3.65;0.80;;;;;;;20.74;69.64;101549.19;5044015;28;20037;-76
2022/08/26 09:33:39;;;;;;;5.10;0.88;;;;;;;20.71;69.84;101551.19;5044262;28;20047;-76
2022/08/26 09:36:14;;;;;;;3.53;0.90;;;;;;;20.73;69.73;101546.66;5061338;28;20407;-76
2022/08/26 09:38:40;;;;;;;4.32;0.88;;;;;;;20.74;69.85;101554.47;5047915;28;20044;-76
2022/08/26 09:41:31;;;;;;;3.70;0.60;;;;;;;20.80;69.74;101549.81;5043608;28;20032;-77
2022/08/26 09:44:10;;;;;;;4.90;0.80;;;;;;;20.83;69.66;101553.13;5043198;28;20025;-76
2022/08/26 09:46:39;;;;;;;5.35;0.98;;;;;;;20.86;69.89;101557.38;5040734;28;20043;-75
2022/08/26 09:49:25;;;;;;;2.92;0.95;;;;;;;20.84;69.38;101556.63;5041557;28;20028;-75
2022/08/26 09:52:13;;;;;;;4.25;0.90;;;;;;;20.80;70.02;101552.47;5041670;28;20037;-75
2022/08/26 09:54:41;;;;;;;5.55;1.10;;;;;;;20.82;69.48;101569.09;5040364;28;20045;-75
2022/08/26 09:57:25;;;;;;;2.95;0.85;;;;;;;20.77;69.88;101557.00;5041641;28;20035;-75
2022/08/26 09:59:50;;;;;;;10.73;1.10;;;;;;;20.74;70.04;101561.56;5042285;28;20032;-76
2022/08/26 10:02:30;;;;;;;5.45;0.88;;;;;;;20.72;69.90;101559.00;5039924;28;20071;-77
2022/08/26 10:04:57;;;;;;;6.63;0.90;;;;;;;20.70;70.20;101550.31;5039459;28;20457;-75
2022/08/26 10:07:39;;;;;;;7.03;0.95;;;;;;;20.71;70.03;101557.28;5039620;28;20041;-75
2022/08/26 10:10:11;;;;;;;5.82;1.15;;;;;;;20.70;70.24;101560.03;5042083;28;20037;-76
2022/08/26 10:12:46;;;;;;;5.78;0.90;;;;;;;20.70;69.86;101557.41;5040601;28;20108;-76
2022/08/26 10:15:14;;;;;;;7.97;0.98;;;;;;;20.71;69.40;101564.41;5040579;28;20033;-75
2022/08/26 10:17:47;;;;;;;4.53;0.90;;;;;;;20.73;69.21;101560.72;5040899;28;20109;-75
2022/08/26 10:20:19;;;;;;;5.03;1.00;;;;;;;20.72;70.19;101559.00;5039657;28;20036;-75
2022/08/26 10:22:58;;;;;;;4.10;0.90;;;;;;;20.73;70.17;101563.34;5040612;28;20029;-75
2022/08/26 10:25:32;;;;;;;12.07;1.23;;;;;;;20.75;69.42;101556.22;5040915;28;20119;-76
2022/08/26 10:28:49;;;;;;;8.57;1.15;;;;;;;20.75;69.95;101564.16;5040872;28;20106;-76
2022/08/26 10:31:38;;;;;;;6.45;1.17;;;;;;;20.75;69.64;101566.81;4993398;28;20041;-75
2022/08/26 10:34:04;;;;;;;4.40;0.93;;;;;;;20.68;69.96;101557.47;5041075;28;20056;-75
2022/08/26 10:36:50;;;;;;;10.25;1.13;;;;;;;20.67;69.91;101561.06;5040605;28;20084;-75
2022/08/26 10:39:30;;;;;;;4.63;0.85;;;;;;;20.73;69.93;101565.16;5040954;28;20451;-76
2022/08/26 10:42:01;;;;;;;6.05;0.90;;;;;;;20.74;69.60;101559.78;5039268;28;20040;-75
2022/08/26 10:44:30;;;;;;;4.80;0.90;;;;;;;20.71;69.21;101567.88;5039230;28;20028;-77
2022/08/26 10:47:04;;;;;;;7.97;0.95;;;;;;;20.67;69.51;101563.69;5042559;28;20033;-75
2022/08/26 10:49:30;;;;;;;5.90;1.02;;;;;;;20.69;69.69;101559.16;5041300;28;20038;-76
2022/08/26 10:52:10;;;;;;;4.32;0.82;;;;;;;20.71;69.87;101562.59;5039502;28;20036;-75
2022/08/26 10:55:09;;;;;;;4.00;0.98;;;;;;;20.77;69.48;101556.13;5039242;28;20036;-76
2022/08/26 10:58:22;;;;;;;4.28;1.00;;;;;;;20.80;69.86;101563.03;5041113;28;20472;-76
2022/08/26 11:04:12;;;;;;;8.43;1.10;;;;;;;20.80;69.37;101560.41;5039169;28;20611;-76
2022/08/26 11:06:38;;;;;;;7.35;1.00;;;;;;;20.81;69.14;101560.28;5040399;28;20116;-75
2022/08/26 11:09:07;;;;;;;4.82;1.00;;;;;;;20.87;69.75;101567.03;5042519;28;20735;-75
2022/08/26 11:11:38;;;;;;;5.97;1.10;;;;;;;20.94;69.13;101563.09;5041109;28;20067;-75
2022/08/26 11:14:05;;;;;;;;;;;;;;;21.05;69.00;101555.38;5041159;28;20065;-75
2022/08/26 11:16:38;;;;;;;4.03;0.90;;;;;;;21.06;69.21;101556.25;5037850;28;19927;-75
2022/08/26 11:19:05;;;;;;;36.70;3.00;;;;;;;21.11;69.11;101555.97;5056876;28;20086;-76
2022/08/26 11:22:00;;;;;;;6.68;1.15;;;;;;;21.20;67.98;101550.09;5040577;28;20029;-77
2022/08/26 11:24:45;;;;;;;6.40;0.90;;;;;;;21.13;68.46;101546.97;5039289;28;20029;-76
2022/08/26 11:27:35;;;;;;;13.93;1.25;;;;;;;21.18;69.06;101554.66;5054866;28;20040;-76
2022/08/26 11:30:05;;;;;;;8.77;1.30;;;;;;;21.18;68.23;101554.66;5030730;28;20037;-76
2022/08/26 11:32:33;;;;;;;6.07;1.05;;;;;;;21.18;68.58;101552.03;5033259;28;20032;-76
2022/08/26 11:35:03;;;;;;;5.60;0.90;;;;;;;21.20;68.79;101558.03;5034318;28;20032;-76
2022/08/26 11:37:33;;;;;;;6.82;1.00;;;;;;;21.19;68.43;101564.28;5042320;28;20039;-76
2022/08/26 11:40:03;;;;;;;3.83;0.90;;;;;;;21.18;67.84;101563.44;5032358;28;20032;-76
2022/08/26 11:42:39;;;;;;;5.95;1.00;;;;;;;21.16;68.02;101559.19;5036828;28;20466;-76
2022/08/26 11:45:31;;;;;;;2.53;0.73;;;;;;;21.10;68.44;101555.09;5041665;28;20037;-76
2022/08/26 11:47:56;;;;;;;;;;;;;;;21.13;68.42;101562.84;5037079;28;20620;-76